sensor_id;sensor_type;location;lat;lon;timestamp;P1;durP1;ratioP1;P2;durP2;ratioP2
28455;SDS011;15682;56.742;38.866;2023-06-26T00:01:56;17.1;;;9.1;;
28455;SDS011;15682;56.742;38.866;2023-06-26T00:03:56;18.9;;;10.3;;
28455;SDS011;15682;56.742;38.866;2023-06-26T00:05:56;16.6;;;9.5;;
28455;SDS011;15682;56.742;38.866;2023-06-26T00:07:56;19.3;;;9.7;;
28455;SDS011;15682;56.742;38.866;2023-06-26T00:09:57;22.4;;;9.4;;
28455;SDS011;15682;56.742;38.866;2023-06-26T00:11:57;21.8;;;9.1;;
28455;SDS011;15682;56.742;38.866;2023-06-26T00:13:57;17.0;;;9.4;;
28455;SDS011;15682;56.742;38.866;2023-06-26T00:15:57;18.5;;;9.6;;
28455;SDS011;15682;56.742;38.866;2023-06-26T00:17:57;20.5;;;9.7;;
28455;SDS011;15682;56.742;38.866;2023-06-26T00:19:58;19.2;;;8.8;;
28455;SDS011;15682;56.742;38.866;2023-06-26T00:21:58;17.2;;;8.9;;
28455;SDS011;15682;56.742;38.866;2023-06-26T00:23:58;23.4;;;9.6;;
28455;SDS011;15682;56.742;38.866;2023-06-26T00:25:58;18.4;;;9.3;;
28455;SDS011;15682;56.742;38.866;2023-06-26T00:27:59;20.4;;;9.0;;
28455;SDS011;15682;56.742;38.866;2023-06-26T00:29:59;20.0;;;9.1;;
28455;SDS011;15682;56.742;38.866;2023-06-26T00:31:59;13.9;;;8.5;;
28455;SDS011;15682;56.742;38.866;2023-06-26T00:33:59;17.6;;;8.1;;
28455;SDS011;15682;56.742;38.866;2023-06-26T00:36:00;18.9;;;7.8;;
28455;SDS011;15682;56.742;38.866;2023-06-26T00:38:00;12.6;;;6.7;;
28455;SDS011;15682;56.742;38.866;2023-06-26T00:40:00;11.9;;;6.2;;
28455;SDS011;15682;56.742;38.866;2023-06-26T00:42:00;13.8;;;6.2;;
28455;SDS011;15682;56.742;38.866;2023-06-26T00:44:00;11.5;;;6.7;;
28455;SDS011;15682;56.742;38.866;2023-06-26T00:46:01;15.7;;;6.4;;
28455;SDS011;15682;56.742;38.866;2023-06-26T00:48:01;19.9;;;6.9;;
28455;SDS011;15682;56.742;38.866;2023-06-26T00:50:01;21.0;;;7.1;;
28455;SDS011;15682;56.742;38.866;2023-06-26T00:52:01;17.1;;;7.2;;
28455;SDS011;15682;56.742;38.866;2023-06-26T00:54:01;13.8;;;6.6;;
28455;SDS011;15682;56.742;38.866;2023-06-26T00:56:02;13.5;;;6.3;;
28455;SDS011;15682;56.742;38.866;2023-06-26T00:58:02;13.3;;;7.0;;
28455;SDS011;15682;56.742;38.866;2023-06-26T01:00:02;11.8;;;6.4;;
28455;SDS011;15682;56.742;38.866;2023-06-26T01:02:02;15.5;;;7.1;;
28455;SDS011;15682;56.742;38.866;2023-06-26T01:04:03;14.5;;;7.1;;
28455;SDS011;15682;56.742;38.866;2023-06-26T01:06:03;18.5;;;6.7;;
28455;SDS011;15682;56.742;38.866;2023-06-26T01:08:03;18.5;;;7.7;;
28455;SDS011;15682;56.742;38.866;2023-06-26T01:10:03;17.0;;;7.1;;
28455;SDS011;15682;56.742;38.866;2023-06-26T01:12:04;17.4;;;7.7;;
28455;SDS011;15682;56.742;38.866;2023-06-26T01:14:04;15.5;;;6.6;;
28455;SDS011;15682;56.742;38.866;2023-06-26T01:16:04;11.7;;;5.9;;
28455;SDS011;15682;56.742;38.866;2023-06-26T01:18:04;14.8;;;6.4;;
28455;SDS011;15682;56.742;38.866;2023-06-26T01:20:05;11.5;;;6.1;;
28455;SDS011;15682;56.742;38.866;2023-06-26T01:22:08;12.2;;;6.6;;
28455;SDS011;15682;56.742;38.866;2023-06-26T01:24:07;12.0;;;6.2;;
28455;SDS011;15682;56.742;38.866;2023-06-26T01:26:15;13.6;;;6.3;;
28455;SDS011;15682;56.742;38.866;2023-06-26T01:28:05;19.6;;;6.0;;
28455;SDS011;15682;56.742;38.866;2023-06-26T01:30:06;9.1;;;5.4;;
28455;SDS011;15682;56.742;38.866;2023-06-26T01:32:06;22.5;;;6.3;;
28455;SDS011;15682;56.742;38.866;2023-06-26T01:34:06;12.8;;;6.1;;
28455;SDS011;15682;56.742;38.866;2023-06-26T01:36:07;9.2;;;6.2;;
28455;SDS011;15682;56.742;38.866;2023-06-26T01:38:12;15.1;;;7.0;;
28455;SDS011;15682;56.742;38.866;2023-06-26T01:40:07;11.2;;;6.5;;
28455;SDS011;15682;56.742;38.866;2023-06-26T01:42:07;10.8;;;6.3;;
28455;SDS011;15682;56.742;38.866;2023-06-26T01:44:11;9.8;;;6.0;;
28455;SDS011;15682;56.742;38.866;2023-06-26T01:46:10;8.5;;;5.9;;
28455;SDS011;15682;56.742;38.866;2023-06-26T01:48:07;10.6;;;5.8;;
28455;SDS011;15682;56.742;38.866;2023-06-26T01:50:09;16.0;;;6.9;;
28455;SDS011;15682;56.742;38.866;2023-06-26T01:52:11;19.6;;;7.3;;
28455;SDS011;15682;56.742;38.866;2023-06-26T01:54:09;13.1;;;6.9;;
28455;SDS011;15682;56.742;38.866;2023-06-26T01:56:13;15.6;;;6.8;;
28455;SDS011;15682;56.742;38.866;2023-06-26T01:58:09;15.0;;;7.2;;
28455;SDS011;15682;56.742;38.866;2023-06-26T02:00:09;17.0;;;7.1;;
28455;SDS011;15682;56.742;38.866;2023-06-26T02:02:09;11.3;;;6.4;;
28455;SDS011;15682;56.742;38.866;2023-06-26T02:04:09;14.2;;;6.5;;
28455;SDS011;15682;56.742;38.866;2023-06-26T02:06:10;10.9;;;6.9;;
28455;SDS011;15682;56.742;38.866;2023-06-26T02:08:10;14.5;;;6.1;;
28455;SDS011;15682;56.742;38.866;2023-06-26T02:10:10;11.0;;;5.9;;
28455;SDS011;15682;56.742;38.866;2023-06-26T02:12:10;11.1;;;6.2;;
28455;SDS011;15682;56.742;38.866;2023-06-26T02:14:11;12.3;;;6.1;;
28455;SDS011;15682;56.742;38.866;2023-06-26T02:16:11;11.7;;;6.5;;
28455;SDS011;15682;56.742;38.866;2023-06-26T02:18:11;18.8;;;6.8;;
28455;SDS011;15682;56.742;38.866;2023-06-26T02:20:11;15.6;;;6.5;;
28455;SDS011;15682;56.742;38.866;2023-06-26T02:22:12;13.8;;;7.3;;
28455;SDS011;15682;56.742;38.866;2023-06-26T02:24:12;13.4;;;6.6;;
28455;SDS011;15682;56.742;38.866;2023-06-26T02:26:12;13.2;;;6.8;;
28455;SDS011;15682;56.742;38.866;2023-06-26T02:28:12;14.9;;;7.3;;
28455;SDS011;15682;56.742;38.866;2023-06-26T02:30:13;13.2;;;7.2;;
28455;SDS011;15682;56.742;38.866;2023-06-26T02:32:13;16.4;;;6.8;;
28455;SDS011;15682;56.742;38.866;2023-06-26T02:34:13;11.8;;;6.7;;
28455;SDS011;15682;56.742;38.866;2023-06-26T02:36:14;11.6;;;6.1;;
28455;SDS011;15682;56.742;38.866;2023-06-26T02:38:14;9.2;;;5.5;;
28455;SDS011;15682;56.742;38.866;2023-06-26T02:40:14;14.2;;;6.4;;
28455;SDS011;15682;56.742;38.866;2023-06-26T02:42:14;15.5;;;6.5;;
28455;SDS011;15682;56.742;38.866;2023-06-26T02:44:15;16.4;;;5.9;;
28455;SDS011;15682;56.742;38.866;2023-06-26T02:46:15;11.8;;;6.2;;
28455;SDS011;15682;56.742;38.866;2023-06-26T02:48:15;21.6;;;6.6;;
28455;SDS011;15682;56.742;38.866;2023-06-26T02:50:16;12.3;;;6.3;;
28455;SDS011;15682;56.742;38.866;2023-06-26T02:52:16;18.7;;;7.2;;
28455;SDS011;15682;56.742;38.866;2023-06-26T02:54:16;11.2;;;6.7;;
28455;SDS011;15682;56.742;38.866;2023-06-26T02:56:16;12.9;;;7.2;;
28455;SDS011;15682;56.742;38.866;2023-06-26T02:58:17;12.1;;;6.7;;
28455;SDS011;15682;56.742;38.866;2023-06-26T03:00:17;16.4;;;6.8;;
28455;SDS011;15682;56.742;38.866;2023-06-26T03:02:17;9.0;;;6.4;;
28455;SDS011;15682;56.742;38.866;2023-06-26T03:04:18;12.5;;;6.2;;
28455;SDS011;15682;56.742;38.866;2023-06-26T03:06:18;13.8;;;6.7;;
28455;SDS011;15682;56.742;38.866;2023-06-26T03:08:18;11.8;;;6.5;;
28455;SDS011;15682;56.742;38.866;2023-06-26T03:10:19;8.9;;;6.4;;
28455;SDS011;15682;56.742;38.866;2023-06-26T03:12:19;14.2;;;6.8;;
28455;SDS011;15682;56.742;38.866;2023-06-26T03:14:19;9.9;;;6.3;;
28455;SDS011;15682;56.742;38.866;2023-06-26T03:16:20;16.3;;;6.6;;
28455;SDS011;15682;56.742;38.866;2023-06-26T03:18:20;13.0;;;6.3;;
28455;SDS011;15682;56.742;38.866;2023-06-26T03:20:20;13.0;;;6.2;;
28455;SDS011;15682;56.742;38.866;2023-06-26T03:22:21;13.9;;;6.3;;
28455;SDS011;15682;56.742;38.866;2023-06-26T03:24:21;15.1;;;6.8;;
28455;SDS011;15682;56.742;38.866;2023-06-26T03:26:21;12.9;;;6.6;;
28455;SDS011;15682;56.742;38.866;2023-06-26T03:28:22;15.4;;;6.0;;
28455;SDS011;15682;56.742;38.866;2023-06-26T03:30:22;16.1;;;6.7;;
28455;SDS011;15682;56.742;38.866;2023-06-26T03:32:22;17.7;;;6.5;;
28455;SDS011;15682;56.742;38.866;2023-06-26T03:34:23;15.0;;;6.5;;
28455;SDS011;15682;56.742;38.866;2023-06-26T03:36:23;11.6;;;6.4;;
28455;SDS011;15682;56.742;38.866;2023-06-26T03:38:24;14.2;;;6.1;;
28455;SDS011;15682;56.742;38.866;2023-06-26T03:40:24;16.0;;;6.9;;
28455;SDS011;15682;56.742;38.866;2023-06-26T03:42:24;16.1;;;6.3;;
28455;SDS011;15682;56.742;38.866;2023-06-26T03:44:25;14.0;;;6.3;;
28455;SDS011;15682;56.742;38.866;2023-06-26T03:46:26;17.2;;;6.5;;
28455;SDS011;15682;56.742;38.866;2023-06-26T03:48:26;11.0;;;6.5;;
28455;SDS011;15682;56.742;38.866;2023-06-26T03:50:26;12.1;;;6.9;;
28455;SDS011;15682;56.742;38.866;2023-06-26T03:52:27;13.4;;;6.2;;
28455;SDS011;15682;56.742;38.866;2023-06-26T03:54:27;15.1;;;6.7;;
28455;SDS011;15682;56.742;38.866;2023-06-26T03:56:28;19.4;;;6.2;;
28455;SDS011;15682;56.742;38.866;2023-06-26T03:58:28;24.1;;;7.3;;
28455;SDS011;15682;56.742;38.866;2023-06-26T04:00:29;16.2;;;6.7;;
28455;SDS011;15682;56.742;38.866;2023-06-26T04:02:29;21.1;;;7.3;;
28455;SDS011;15682;56.742;38.866;2023-06-26T04:04:30;17.6;;;8.0;;
28455;SDS011;15682;56.742;38.866;2023-06-26T04:06:31;20.1;;;6.8;;
28455;SDS011;15682;56.742;38.866;2023-06-26T04:08:31;20.3;;;6.8;;
28455;SDS011;15682;56.742;38.866;2023-06-26T04:10:32;14.3;;;6.5;;
28455;SDS011;15682;56.742;38.866;2023-06-26T04:12:33;16.0;;;6.6;;
28455;SDS011;15682;56.742;38.866;2023-06-26T04:14:33;15.3;;;6.5;;
28455;SDS011;15682;56.742;38.866;2023-06-26T04:16:34;18.6;;;6.6;;
28455;SDS011;15682;56.742;38.866;2023-06-26T04:18:35;18.9;;;6.5;;
28455;SDS011;15682;56.742;38.866;2023-06-26T04:20:38;14.9;;;6.5;;
28455;SDS011;15682;56.742;38.866;2023-06-26T04:22:37;11.9;;;6.3;;
28455;SDS011;15682;56.742;38.866;2023-06-26T04:24:37;13.4;;;6.7;;
28455;SDS011;15682;56.742;38.866;2023-06-26T04:26:38;17.2;;;6.5;;
28455;SDS011;15682;56.742;38.866;2023-06-26T04:28:39;13.1;;;6.3;;
28455;SDS011;15682;56.742;38.866;2023-06-26T04:30:40;11.7;;;6.0;;
28455;SDS011;15682;56.742;38.866;2023-06-26T04:32:41;16.1;;;6.7;;
28455;SDS011;15682;56.742;38.866;2023-06-26T04:34:41;14.4;;;6.0;;
28455;SDS011;15682;56.742;38.866;2023-06-26T04:36:42;14.8;;;6.0;;
28455;SDS011;15682;56.742;38.866;2023-06-26T04:38:43;9.3;;;6.2;;
28455;SDS011;15682;56.742;38.866;2023-06-26T04:40:44;15.5;;;6.4;;
28455;SDS011;15682;56.742;38.866;2023-06-26T04:42:45;10.2;;;5.6;;
28455;SDS011;15682;56.742;38.866;2023-06-26T04:44:45;16.3;;;6.1;;
28455;SDS011;15682;56.742;38.866;2023-06-26T04:46:46;9.3;;;5.6;;
28455;SDS011;15682;56.742;38.866;2023-06-26T04:48:47;12.2;;;5.9;;
28455;SDS011;15682;56.742;38.866;2023-06-26T04:50:48;9.0;;;5.4;;
28455;SDS011;15682;56.742;38.866;2023-06-26T04:52:49;6.8;;;5.3;;
28455;SDS011;15682;56.742;38.866;2023-06-26T04:54:50;12.0;;;5.5;;
28455;SDS011;15682;56.742;38.866;2023-06-26T04:56:50;21.4;;;6.1;;
28455;SDS011;15682;56.742;38.866;2023-06-26T04:58:51;19.9;;;6.1;;
28455;SDS011;15682;56.742;38.866;2023-06-26T05:00:52;9.8;;;6.1;;
28455;SDS011;15682;56.742;38.866;2023-06-26T05:02:53;29.5;;;6.5;;
28455;SDS011;15682;56.742;38.866;2023-06-26T05:04:54;12.4;;;6.0;;
28455;SDS011;15682;56.742;38.866;2023-06-26T05:06:55;16.5;;;5.8;;
28455;SDS011;15682;56.742;38.866;2023-06-26T05:08:55;20.9;;;6.3;;
28455;SDS011;15682;56.742;38.866;2023-06-26T05:10:56;11.2;;;5.6;;
28455;SDS011;15682;56.742;38.866;2023-06-26T05:12:57;12.7;;;5.7;;
28455;SDS011;15682;56.742;38.866;2023-06-26T05:14:58;12.3;;;5.9;;
28455;SDS011;15682;56.742;38.866;2023-06-26T05:16:59;13.6;;;6.1;;
28455;SDS011;15682;56.742;38.866;2023-06-26T05:19:00;28.8;;;6.1;;
28455;SDS011;15682;56.742;38.866;2023-06-26T05:21:01;19.9;;;5.6;;
28455;SDS011;15682;56.742;38.866;2023-06-26T05:23:02;11.3;;;5.6;;
28455;SDS011;15682;56.742;38.866;2023-06-26T05:25:03;8.1;;;5.4;;
28455;SDS011;15682;56.742;38.866;2023-06-26T05:27:04;10.4;;;6.0;;
28455;SDS011;15682;56.742;38.866;2023-06-26T05:29:05;11.9;;;5.7;;
28455;SDS011;15682;56.742;38.866;2023-06-26T05:31:05;11.8;;;6.3;;
28455;SDS011;15682;56.742;38.866;2023-06-26T05:33:06;10.2;;;5.5;;
28455;SDS011;15682;56.742;38.866;2023-06-26T05:35:07;10.8;;;5.7;;
28455;SDS011;15682;56.742;38.866;2023-06-26T05:37:08;14.2;;;5.3;;
28455;SDS011;15682;56.742;38.866;2023-06-26T05:39:09;14.7;;;5.6;;
28455;SDS011;15682;56.742;38.866;2023-06-26T05:41:10;14.2;;;5.8;;
28455;SDS011;15682;56.742;38.866;2023-06-26T05:43:11;11.2;;;5.6;;
28455;SDS011;15682;56.742;38.866;2023-06-26T05:45:12;27.8;;;6.1;;
28455;SDS011;15682;56.742;38.866;2023-06-26T05:47:13;12.1;;;5.7;;
28455;SDS011;15682;56.742;38.866;2023-06-26T05:49:14;14.0;;;5.4;;
28455;SDS011;15682;56.742;38.866;2023-06-26T05:51:15;11.6;;;5.2;;
28455;SDS011;15682;56.742;38.866;2023-06-26T05:53:16;8.5;;;5.5;;
28455;SDS011;15682;56.742;38.866;2023-06-26T05:55:17;12.2;;;5.3;;
28455;SDS011;15682;56.742;38.866;2023-06-26T05:57:17;15.3;;;5.8;;
28455;SDS011;15682;56.742;38.866;2023-06-26T05:59:18;16.3;;;5.9;;
28455;SDS011;15682;56.742;38.866;2023-06-26T06:01:21;18.0;;;5.6;;
28455;SDS011;15682;56.742;38.866;2023-06-26T06:03:20;12.4;;;5.8;;
28455;SDS011;15682;56.742;38.866;2023-06-26T06:05:21;7.7;;;5.3;;
28455;SDS011;15682;56.742;38.866;2023-06-26T06:07:22;10.2;;;5.3;;
28455;SDS011;15682;56.742;38.866;2023-06-26T06:09:23;15.3;;;5.8;;
28455;SDS011;15682;56.742;38.866;2023-06-26T06:11:24;10.5;;;5.5;;
28455;SDS011;15682;56.742;38.866;2023-06-26T06:13:25;10.4;;;5.4;;
28455;SDS011;15682;56.742;38.866;2023-06-26T06:15:26;9.3;;;5.4;;
28455;SDS011;15682;56.742;38.866;2023-06-26T06:17:27;13.0;;;5.7;;
28455;SDS011;15682;56.742;38.866;2023-06-26T06:19:29;10.6;;;5.3;;
28455;SDS011;15682;56.742;38.866;2023-06-26T06:21:28;13.2;;;5.5;;
28455;SDS011;15682;56.742;38.866;2023-06-26T06:23:29;8.6;;;5.8;;
28455;SDS011;15682;56.742;38.866;2023-06-26T06:25:30;15.1;;;6.1;;
28455;SDS011;15682;56.742;38.866;2023-06-26T06:27:31;10.3;;;6.2;;
28455;SDS011;15682;56.742;38.866;2023-06-26T06:29:32;9.2;;;6.3;;
28455;SDS011;15682;56.742;38.866;2023-06-26T06:31:33;7.8;;;6.0;;
28455;SDS011;15682;56.742;38.866;2023-06-26T06:33:34;9.0;;;6.1;;
28455;SDS011;15682;56.742;38.866;2023-06-26T06:35:35;10.1;;;5.9;;
28455;SDS011;15682;56.742;38.866;2023-06-26T06:37:36;9.8;;;5.9;;
28455;SDS011;15682;56.742;38.866;2023-06-26T06:39:37;7.4;;;5.4;;
28455;SDS011;15682;56.742;38.866;2023-06-26T06:41:38;7.2;;;5.0;;
28455;SDS011;15682;56.742;38.866;2023-06-26T06:43:39;7.4;;;5.0;;
28455;SDS011;15682;56.742;38.866;2023-06-26T06:45:40;11.9;;;5.4;;
28455;SDS011;15682;56.742;38.866;2023-06-26T06:47:41;15.9;;;5.3;;
28455;SDS011;15682;56.742;38.866;2023-06-26T06:49:42;11.4;;;5.1;;
28455;SDS011;15682;56.742;38.866;2023-06-26T06:51:43;7.8;;;4.6;;
28455;SDS011;15682;56.742;38.866;2023-06-26T06:53:44;10.2;;;4.9;;
28455;SDS011;15682;56.742;38.866;2023-06-26T06:55:44;8.3;;;4.9;;
28455;SDS011;15682;56.742;38.866;2023-06-26T06:57:45;7.9;;;4.6;;
28455;SDS011;15682;56.742;38.866;2023-06-26T06:59:46;5.8;;;4.4;;
28455;SDS011;15682;56.742;38.866;2023-06-26T07:01:47;5.8;;;4.3;;
28455;SDS011;15682;56.742;38.866;2023-06-26T07:03:48;6.5;;;4.5;;
28455;SDS011;15682;56.742;38.866;2023-06-26T07:05:49;8.3;;;4.5;;
28455;SDS011;15682;56.742;38.866;2023-06-26T07:07:50;4.9;;;4.1;;
28455;SDS011;15682;56.742;38.866;2023-06-26T07:09:50;6.6;;;4.2;;
28455;SDS011;15682;56.742;38.866;2023-06-26T07:11:51;6.2;;;3.8;;
28455;SDS011;15682;56.742;38.866;2023-06-26T07:13:52;6.1;;;4.0;;
28455;SDS011;15682;56.742;38.866;2023-06-26T07:15:53;9.0;;;4.2;;
28455;SDS011;15682;56.742;38.866;2023-06-26T07:17:54;10.8;;;4.3;;
28455;SDS011;15682;56.742;38.866;2023-06-26T07:19:55;5.6;;;3.7;;
28455;SDS011;15682;56.742;38.866;2023-06-26T07:21:55;5.8;;;3.4;;
28455;SDS011;15682;56.742;38.866;2023-06-26T07:23:56;6.4;;;3.8;;
28455;SDS011;15682;56.742;38.866;2023-06-26T07:25:57;7.8;;;4.1;;
28455;SDS011;15682;56.742;38.866;2023-06-26T07:27:58;9.1;;;4.2;;
28455;SDS011;15682;56.742;38.866;2023-06-26T07:29:59;11.5;;;4.2;;
28455;SDS011;15682;56.742;38.866;2023-06-26T07:32:00;7.9;;;3.9;;
28455;SDS011;15682;56.742;38.866;2023-06-26T07:34:00;9.7;;;4.0;;
28455;SDS011;15682;56.742;38.866;2023-06-26T07:36:01;7.6;;;3.8;;
28455;SDS011;15682;56.742;38.866;2023-06-26T07:38:03;5.9;;;3.7;;
28455;SDS011;15682;56.742;38.866;2023-06-26T07:40:03;11.9;;;3.9;;
28455;SDS011;15682;56.742;38.866;2023-06-26T07:42:04;5.8;;;4.1;;
28455;SDS011;15682;56.742;38.866;2023-06-26T07:44:04;8.2;;;4.0;;
28455;SDS011;15682;56.742;38.866;2023-06-26T07:46:05;5.6;;;4.3;;
28455;SDS011;15682;56.742;38.866;2023-06-26T07:48:06;10.6;;;4.4;;
28455;SDS011;15682;56.742;38.866;2023-06-26T07:50:06;17.8;;;4.3;;
28455;SDS011;15682;56.742;38.866;2023-06-26T07:52:07;11.4;;;4.4;;
28455;SDS011;15682;56.742;38.866;2023-06-26T07:54:08;7.4;;;4.3;;
28455;SDS011;15682;56.742;38.866;2023-06-26T07:56:08;9.1;;;4.5;;
28455;SDS011;15682;56.742;38.866;2023-06-26T07:58:09;8.3;;;4.0;;
28455;SDS011;15682;56.742;38.866;2023-06-26T08:00:10;6.7;;;4.0;;
28455;SDS011;15682;56.742;38.866;2023-06-26T08:02:10;8.6;;;4.3;;
28455;SDS011;15682;56.742;38.866;2023-06-26T08:04:11;13.2;;;4.1;;
28455;SDS011;15682;56.742;38.866;2023-06-26T08:06:11;6.5;;;3.9;;
28455;SDS011;15682;56.742;38.866;2023-06-26T08:08:12;4.2;;;3.5;;
28455;SDS011;15682;56.742;38.866;2023-06-26T08:10:12;7.6;;;3.7;;
28455;SDS011;15682;56.742;38.866;2023-06-26T08:12:13;7.1;;;4.0;;
28455;SDS011;15682;56.742;38.866;2023-06-26T08:14:14;8.8;;;3.6;;
28455;SDS011;15682;56.742;38.866;2023-06-26T08:16:14;8.3;;;3.7;;
28455;SDS011;15682;56.742;38.866;2023-06-26T08:18:15;7.9;;;3.9;;
28455;SDS011;15682;56.742;38.866;2023-06-26T08:20:15;10.4;;;4.1;;
28455;SDS011;15682;56.742;38.866;2023-06-26T08:22:16;6.2;;;3.8;;
28455;SDS011;15682;56.742;38.866;2023-06-26T08:24:17;5.2;;;4.1;;
28455;SDS011;15682;56.742;38.866;2023-06-26T08:26:17;7.2;;;3.7;;
28455;SDS011;15682;56.742;38.866;2023-06-26T08:28:18;5.8;;;3.7;;
28455;SDS011;15682;56.742;38.866;2023-06-26T08:30:18;7.4;;;3.7;;
28455;SDS011;15682;56.742;38.866;2023-06-26T08:32:19;5.9;;;4.0;;
28455;SDS011;15682;56.742;38.866;2023-06-26T08:34:19;8.4;;;4.1;;
28455;SDS011;15682;56.742;38.866;2023-06-26T08:36:20;7.1;;;4.0;;
28455;SDS011;15682;56.742;38.866;2023-06-26T08:38:20;5.4;;;3.8;;
28455;SDS011;15682;56.742;38.866;2023-06-26T08:40:21;7.3;;;3.8;;
28455;SDS011;15682;56.742;38.866;2023-06-26T08:42:21;5.6;;;3.9;;
28455;SDS011;15682;56.742;38.866;2023-06-26T08:44:22;7.1;;;3.9;;
28455;SDS011;15682;56.742;38.866;2023-06-26T08:46:22;9.0;;;3.9;;
28455;SDS011;15682;56.742;38.866;2023-06-26T08:48:23;6.1;;;3.7;;
28455;SDS011;15682;56.742;38.866;2023-06-26T08:50:24;7.7;;;3.6;;
28455;SDS011;15682;56.742;38.866;2023-06-26T08:52:26;9.2;;;3.9;;
28455;SDS011;15682;56.742;38.866;2023-06-26T08:54:27;7.2;;;3.7;;
28455;SDS011;15682;56.742;38.866;2023-06-26T08:56:27;10.6;;;3.8;;
28455;SDS011;15682;56.742;38.866;2023-06-26T08:58:26;12.5;;;4.0;;
28455;SDS011;15682;56.742;38.866;2023-06-26T09:00:26;8.3;;;3.9;;
28455;SDS011;15682;56.742;38.866;2023-06-26T09:02:27;11.3;;;3.7;;
28455;SDS011;15682;56.742;38.866;2023-06-26T09:04:27;10.5;;;4.0;;
28455;SDS011;15682;56.742;38.866;2023-06-26T09:06:28;10.2;;;3.6;;
28455;SDS011;15682;56.742;38.866;2023-06-26T09:08:28;14.3;;;4.2;;
28455;SDS011;15682;56.742;38.866;2023-06-26T09:10:29;5.4;;;4.0;;
28455;SDS011;15682;56.742;38.866;2023-06-26T09:12:30;8.8;;;3.5;;
28455;SDS011;15682;56.742;38.866;2023-06-26T09:14:30;4.6;;;3.9;;
28455;SDS011;15682;56.742;38.866;2023-06-26T09:16:31;6.1;;;4.1;;
28455;SDS011;15682;56.742;38.866;2023-06-26T09:18:32;5.7;;;3.7;;
28455;SDS011;15682;56.742;38.866;2023-06-26T09:20:32;11.0;;;4.2;;
28455;SDS011;15682;56.742;38.866;2023-06-26T09:22:33;8.4;;;4.1;;
28455;SDS011;15682;56.742;38.866;2023-06-26T09:24:33;8.9;;;3.9;;
28455;SDS011;15682;56.742;38.866;2023-06-26T09:26:34;8.8;;;3.8;;
28455;SDS011;15682;56.742;38.866;2023-06-26T09:28:34;9.1;;;3.8;;
28455;SDS011;15682;56.742;38.866;2023-06-26T09:30:35;9.3;;;4.1;;
28455;SDS011;15682;56.742;38.866;2023-06-26T09:32:35;8.1;;;3.7;;
28455;SDS011;15682;56.742;38.866;2023-06-26T09:34:36;6.1;;;3.4;;
28455;SDS011;15682;56.742;38.866;2023-06-26T09:36:36;6.5;;;3.9;;
28455;SDS011;15682;56.742;38.866;2023-06-26T09:38:37;6.2;;;3.8;;
28455;SDS011;15682;56.742;38.866;2023-06-26T09:40:37;10.7;;;4.1;;
28455;SDS011;15682;56.742;38.866;2023-06-26T09:42:38;6.2;;;3.9;;
28455;SDS011;15682;56.742;38.866;2023-06-26T09:44:43;5.7;;;3.8;;
28455;SDS011;15682;56.742;38.866;2023-06-26T09:46:39;6.5;;;4.0;;
28455;SDS011;15682;56.742;38.866;2023-06-26T09:48:39;6.0;;;3.8;;
28455;SDS011;15682;56.742;38.866;2023-06-26T09:50:41;8.4;;;4.2;;
28455;SDS011;15682;56.742;38.866;2023-06-26T09:52:40;6.5;;;3.7;;
28455;SDS011;15682;56.742;38.866;2023-06-26T09:54:41;8.7;;;3.9;;
28455;SDS011;15682;56.742;38.866;2023-06-26T09:56:41;6.7;;;3.7;;
28455;SDS011;15682;56.742;38.866;2023-06-26T09:58:42;5.8;;;3.5;;
28455;SDS011;15682;56.742;38.866;2023-06-26T10:00:43;7.3;;;3.8;;
28455;SDS011;15682;56.742;38.866;2023-06-26T10:02:43;26.6;;;4.3;;
28455;SDS011;15682;56.742;38.866;2023-06-26T10:04:44;9.7;;;3.8;;
28455;SDS011;15682;56.742;38.866;2023-06-26T10:06:45;7.4;;;3.3;;
28455;SDS011;15682;56.742;38.866;2023-06-26T10:08:45;9.6;;;3.2;;
28455;SDS011;15682;56.742;38.866;2023-06-26T10:10:45;10.8;;;3.2;;
28455;SDS011;15682;56.742;38.866;2023-06-26T10:12:47;7.8;;;3.7;;
28455;SDS011;15682;56.742;38.866;2023-06-26T10:14:46;8.5;;;4.2;;
28455;SDS011;15682;56.742;38.866;2023-06-26T10:16:47;6.5;;;3.9;;
28455;SDS011;15682;56.742;38.866;2023-06-26T10:18:47;8.1;;;4.0;;
28455;SDS011;15682;56.742;38.866;2023-06-26T10:20:48;7.9;;;3.5;;
28455;SDS011;15682;56.742;38.866;2023-06-26T10:22:48;6.9;;;3.5;;
28455;SDS011;15682;56.742;38.866;2023-06-26T10:24:49;8.4;;;3.7;;
28455;SDS011;15682;56.742;38.866;2023-06-26T10:26:50;7.8;;;3.9;;
28455;SDS011;15682;56.742;38.866;2023-06-26T10:28:50;8.2;;;3.5;;
28455;SDS011;15682;56.742;38.866;2023-06-26T10:30:51;5.8;;;3.4;;
28455;SDS011;15682;56.742;38.866;2023-06-26T10:32:51;7.2;;;3.6;;
28455;SDS011;15682;56.742;38.866;2023-06-26T10:34:52;7.9;;;3.7;;
28455;SDS011;15682;56.742;38.866;2023-06-26T10:36:58;5.0;;;3.4;;
28455;SDS011;15682;56.742;38.866;2023-06-26T10:38:54;6.4;;;3.1;;
28455;SDS011;15682;56.742;38.866;2023-06-26T10:40:53;10.0;;;3.6;;
28455;SDS011;15682;56.742;38.866;2023-06-26T10:43:05;6.8;;;3.5;;
28455;SDS011;15682;56.742;38.866;2023-06-26T10:44:54;7.2;;;3.5;;
28455;SDS011;15682;56.742;38.866;2023-06-26T10:46:55;9.6;;;3.6;;
28455;SDS011;15682;56.742;38.866;2023-06-26T10:48:55;8.0;;;3.3;;
28455;SDS011;15682;56.742;38.866;2023-06-26T10:50:56;6.6;;;3.5;;
28455;SDS011;15682;56.742;38.866;2023-06-26T10:54:57;5.3;;;3.8;;
28455;SDS011;15682;56.742;38.866;2023-06-26T10:56:58;7.2;;;3.5;;
28455;SDS011;15682;56.742;38.866;2023-06-26T10:59:01;7.7;;;3.8;;
28455;SDS011;15682;56.742;38.866;2023-06-26T11:02:59;6.5;;;3.6;;
28455;SDS011;15682;56.742;38.866;2023-06-26T11:04:59;7.5;;;3.5;;
28455;SDS011;15682;56.742;38.866;2023-06-26T11:07:14;5.1;;;3.4;;
28455;SDS011;15682;56.742;38.866;2023-06-26T11:09:01;8.0;;;3.7;;
28455;SDS011;15682;56.742;38.866;2023-06-26T11:11:01;7.7;;;3.7;;
28455;SDS011;15682;56.742;38.866;2023-06-26T11:13:01;8.0;;;3.7;;
28455;SDS011;15682;56.742;38.866;2023-06-26T11:15:02;11.3;;;3.5;;
28455;SDS011;15682;56.742;38.866;2023-06-26T11:17:03;15.1;;;3.8;;
28455;SDS011;15682;56.742;38.866;2023-06-26T11:19:03;14.5;;;3.8;;
28455;SDS011;15682;56.742;38.866;2023-06-26T11:21:05;19.7;;;4.3;;
28455;SDS011;15682;56.742;38.866;2023-06-26T11:23:04;17.1;;;4.5;;
28455;SDS011;15682;56.742;38.866;2023-06-26T11:25:05;12.6;;;4.1;;
28455;SDS011;15682;56.742;38.866;2023-06-26T11:27:05;11.6;;;4.3;;
28455;SDS011;15682;56.742;38.866;2023-06-26T11:29:06;7.9;;;3.7;;
28455;SDS011;15682;56.742;38.866;2023-06-26T11:31:06;7.2;;;4.0;;
28455;SDS011;15682;56.742;38.866;2023-06-26T11:33:07;10.6;;;3.7;;
28455;SDS011;15682;56.742;38.866;2023-06-26T11:35:07;7.1;;;3.7;;
28455;SDS011;15682;56.742;38.866;2023-06-26T11:37:07;9.7;;;3.7;;
28455;SDS011;15682;56.742;38.866;2023-06-26T11:39:08;8.8;;;3.6;;
28455;SDS011;15682;56.742;38.866;2023-06-26T11:41:08;6.4;;;3.5;;
28455;SDS011;15682;56.742;38.866;2023-06-26T11:43:09;8.9;;;3.8;;
28455;SDS011;15682;56.742;38.866;2023-06-26T11:45:09;10.6;;;4.4;;
28455;SDS011;15682;56.742;38.866;2023-06-26T11:47:12;12.6;;;3.8;;
28455;SDS011;15682;56.742;38.866;2023-06-26T11:49:10;9.3;;;4.3;;
28455;SDS011;15682;56.742;38.866;2023-06-26T11:51:12;12.1;;;4.0;;
28455;SDS011;15682;56.742;38.866;2023-06-26T11:53:14;7.1;;;4.0;;
28455;SDS011;15682;56.742;38.866;2023-06-26T11:55:11;7.7;;;4.0;;
28455;SDS011;15682;56.742;38.866;2023-06-26T11:57:13;11.5;;;3.8;;
28455;SDS011;15682;56.742;38.866;2023-06-26T11:59:12;7.2;;;3.7;;
28455;SDS011;15682;56.742;38.866;2023-06-26T12:01:15;13.5;;;3.4;;
28455;SDS011;15682;56.742;38.866;2023-06-26T12:03:13;9.9;;;3.1;;
28455;SDS011;15682;56.742;38.866;2023-06-26T12:05:14;11.1;;;2.9;;
28455;SDS011;15682;56.742;38.866;2023-06-26T12:07:14;9.9;;;3.3;;
28455;SDS011;15682;56.742;38.866;2023-06-26T12:09:14;6.2;;;3.3;;
28455;SDS011;15682;56.742;38.866;2023-06-26T12:11:15;4.5;;;3.1;;
28455;SDS011;15682;56.742;38.866;2023-06-26T12:13:15;14.9;;;3.8;;
28455;SDS011;15682;56.742;38.866;2023-06-26T12:15:16;17.3;;;4.1;;